sensor_id;sensor_type;location;lat;lon;timestamp;P1;durP1;ratioP1;P2;durP2;ratioP2
22219;SDS011;11279;48.364;10.904;2023-03-01T00:00:50;23.17;;;13.53;;
22219;SDS011;11279;48.364;10.904;2023-03-01T00:01:51;27.00;;;15.07;;
22219;SDS011;11279;48.364;10.904;2023-03-01T00:02:51;24.17;;;13.93;;
22219;SDS011;11279;48.364;10.904;2023-03-01T00:03:53;25.63;;;15.67;;
22219;SDS011;11279;48.364;10.904;2023-03-01T00:04:53;25.80;;;14.32;;
22219;SDS011;11279;48.364;10.904;2023-03-01T00:05:54;25.70;;;15.03;;
22219;SDS011;11279;48.364;10.904;2023-03-01T00:06:54;24.43;;;14.80;;
22219;SDS011;11279;48.364;10.904;2023-03-01T00:07:54;27.47;;;14.70;;
22219;SDS011;11279;48.364;10.904;2023-03-01T00:08:55;27.10;;;15.23;;
22219;SDS011;11279;48.364;10.904;2023-03-01T00:09:55;26.50;;;14.97;;
22219;SDS011;11279;48.364;10.904;2023-03-01T00:12:05;24.83;;;14.57;;
22219;SDS011;11279;48.364;10.904;2023-03-01T00:13:06;24.53;;;14.73;;
22219;SDS011;11279;48.364;10.904;2023-03-01T00:14:06;26.13;;;15.17;;
22219;SDS011;11279;48.364;10.904;2023-03-01T00:15:07;25.43;;;14.37;;
22219;SDS011;11279;48.364;10.904;2023-03-01T00:16:09;28.45;;;15.02;;
22219;SDS011;11279;48.364;10.904;2023-03-01T00:17:11;28.95;;;14.40;;
22219;SDS011;11279;48.364;10.904;2023-03-01T00:18:11;27.33;;;15.00;;
22219;SDS011;11279;48.364;10.904;2023-03-01T00:19:20;28.87;;;15.40;;
22219;SDS011;11279;48.364;10.904;2023-03-01T00:20:21;27.67;;;15.40;;
22219;SDS011;11279;48.364;10.904;2023-03-01T00:21:22;26.53;;;14.63;;
22219;SDS011;11279;48.364;10.904;2023-03-01T00:22:23;28.30;;;15.75;;
22219;SDS011;11279;48.364;10.904;2023-03-01T00:23:23;28.20;;;15.67;;
22219;SDS011;11279;48.364;10.904;2023-03-01T00:24:24;26.67;;;15.37;;
22219;SDS011;11279;48.364;10.904;2023-03-01T00:25:24;29.43;;;15.47;;
22219;SDS011;11279;48.364;10.904;2023-03-01T00:26:25;24.97;;;14.90;;
22219;SDS011;11279;48.364;10.904;2023-03-01T00:27:26;26.48;;;15.20;;
22219;SDS011;11279;48.364;10.904;2023-03-01T00:28:26;29.20;;;14.77;;
22219;SDS011;11279;48.364;10.904;2023-03-01T00:29:27;28.70;;;16.00;;
22219;SDS011;11279;48.364;10.904;2023-03-01T00:30:27;26.43;;;15.67;;
22219;SDS011;11279;48.364;10.904;2023-03-01T00:31:28;25.10;;;14.70;;
22219;SDS011;11279;48.364;10.904;2023-03-01T00:32:30;24.67;;;14.63;;
22219;SDS011;11279;48.364;10.904;2023-03-01T00:33:30;26.23;;;15.00;;
22219;SDS011;11279;48.364;10.904;2023-03-01T00:34:31;29.47;;;15.53;;
22219;SDS011;11279;48.364;10.904;2023-03-01T00:35:32;28.13;;;15.03;;
22219;SDS011;11279;48.364;10.904;2023-03-01T00:36:35;26.98;;;14.85;;
22219;SDS011;11279;48.364;10.904;2023-03-01T00:37:36;25.48;;;15.00;;
22219;SDS011;11279;48.364;10.904;2023-03-01T00:38:37;26.07;;;15.23;;
22219;SDS011;11279;48.364;10.904;2023-03-01T00:39:39;26.40;;;15.18;;
22219;SDS011;11279;48.364;10.904;2023-03-01T00:40:39;26.00;;;14.87;;
22219;SDS011;11279;48.364;10.904;2023-03-01T00:41:40;25.70;;;14.70;;
22219;SDS011;11279;48.364;10.904;2023-03-01T00:42:41;26.35;;;15.23;;
22219;SDS011;11279;48.364;10.904;2023-03-01T00:43:43;27.73;;;15.27;;
22219;SDS011;11279;48.364;10.904;2023-03-01T00:44:44;26.60;;;16.38;;
22219;SDS011;11279;48.364;10.904;2023-03-01T00:45:44;25.43;;;15.37;;
22219;SDS011;11279;48.364;10.904;2023-03-01T00:46:45;24.47;;;13.97;;
22219;SDS011;11279;48.364;10.904;2023-03-01T00:47:45;26.23;;;14.97;;
22219;SDS011;11279;48.364;10.904;2023-03-01T00:48:46;26.60;;;15.40;;
22219;SDS011;11279;48.364;10.904;2023-03-01T00:49:46;27.57;;;15.07;;
22219;SDS011;11279;48.364;10.904;2023-03-01T00:50:47;27.20;;;15.50;;
22219;SDS011;11279;48.364;10.904;2023-03-01T00:51:47;27.07;;;16.27;;
22219;SDS011;11279;48.364;10.904;2023-03-01T00:52:50;25.90;;;14.73;;
22219;SDS011;11279;48.364;10.904;2023-03-01T00:53:53;24.15;;;14.77;;
22219;SDS011;11279;48.364;10.904;2023-03-01T00:54:55;29.13;;;15.90;;
22219;SDS011;11279;48.364;10.904;2023-03-01T00:55:56;25.60;;;14.73;;
22219;SDS011;11279;48.364;10.904;2023-03-01T00:56:57;26.60;;;15.00;;
22219;SDS011;11279;48.364;10.904;2023-03-01T00:57:57;27.47;;;16.07;;
22219;SDS011;11279;48.364;10.904;2023-03-01T00:58:58;27.80;;;15.43;;
22219;SDS011;11279;48.364;10.904;2023-03-01T00:59:58;26.80;;;15.63;;
22219;SDS011;11279;48.364;10.904;2023-03-01T01:00:59;26.30;;;14.97;;
22219;SDS011;11279;48.364;10.904;2023-03-01T01:01:59;26.57;;;15.83;;
22219;SDS011;11279;48.364;10.904;2023-03-01T01:03:00;25.17;;;14.93;;
22219;SDS011;11279;48.364;10.904;2023-03-01T01:04:02;28.13;;;15.53;;
22219;SDS011;11279;48.364;10.904;2023-03-01T01:05:04;26.00;;;15.18;;
22219;SDS011;11279;48.364;10.904;2023-03-01T01:06:05;25.50;;;14.63;;
22219;SDS011;11279;48.364;10.904;2023-03-01T01:07:09;24.90;;;14.27;;
22219;SDS011;11279;48.364;10.904;2023-03-01T01:08:10;25.53;;;14.97;;
22219;SDS011;11279;48.364;10.904;2023-03-01T01:09:11;28.30;;;15.20;;
22219;SDS011;11279;48.364;10.904;2023-03-01T01:10:17;24.92;;;15.15;;
22219;SDS011;11279;48.364;10.904;2023-03-01T01:11:17;28.77;;;15.13;;
22219;SDS011;11279;48.364;10.904;2023-03-01T01:12:18;27.15;;;15.32;;
22219;SDS011;11279;48.364;10.904;2023-03-01T01:13:18;27.07;;;14.67;;
22219;SDS011;11279;48.364;10.904;2023-03-01T01:14:19;27.27;;;15.37;;
22219;SDS011;11279;48.364;10.904;2023-03-01T01:15:20;25.33;;;13.83;;
22219;SDS011;11279;48.364;10.904;2023-03-01T01:16:21;25.43;;;15.80;;
22219;SDS011;11279;48.364;10.904;2023-03-01T01:17:22;28.05;;;15.63;;
22219;SDS011;11279;48.364;10.904;2023-03-01T01:18:23;28.20;;;15.57;;
22219;SDS011;11279;48.364;10.904;2023-03-01T01:19:24;27.10;;;15.37;;
22219;SDS011;11279;48.364;10.904;2023-03-01T01:20:25;25.85;;;15.20;;
22219;SDS011;11279;48.364;10.904;2023-03-01T01:21:25;26.17;;;15.83;;
22219;SDS011;11279;48.364;10.904;2023-03-01T01:22:27;26.40;;;15.13;;
22219;SDS011;11279;48.364;10.904;2023-03-01T01:23:27;26.00;;;15.00;;
22219;SDS011;11279;48.364;10.904;2023-03-01T01:24:27;25.83;;;15.37;;
22219;SDS011;11279;48.364;10.904;2023-03-01T01:25:28;25.77;;;15.03;;
22219;SDS011;11279;48.364;10.904;2023-03-01T01:26:30;26.97;;;14.87;;
22219;SDS011;11279;48.364;10.904;2023-03-01T01:27:31;28.20;;;15.50;;
22219;SDS011;11279;48.364;10.904;2023-03-01T01:28:31;29.43;;;16.07;;
22219;SDS011;11279;48.364;10.904;2023-03-01T01:29:32;24.40;;;14.63;;
22219;SDS011;11279;48.364;10.904;2023-03-01T01:30:33;29.07;;;15.43;;
22219;SDS011;11279;48.364;10.904;2023-03-01T01:31:34;26.47;;;15.47;;
22219;SDS011;11279;48.364;10.904;2023-03-01T01:32:34;27.48;;;16.25;;
22219;SDS011;11279;48.364;10.904;2023-03-01T01:33:35;25.50;;;15.33;;
22219;SDS011;11279;48.364;10.904;2023-03-01T01:34:37;28.02;;;15.18;;
22219;SDS011;11279;48.364;10.904;2023-03-01T01:35:37;28.00;;;16.13;;
22219;SDS011;11279;48.364;10.904;2023-03-01T01:36:38;27.57;;;15.30;;
22219;SDS011;11279;48.364;10.904;2023-03-01T01:37:38;30.47;;;15.53;;
22219;SDS011;11279;48.364;10.904;2023-03-01T01:38:39;26.60;;;14.97;;
22219;SDS011;11279;48.364;10.904;2023-03-01T01:39:39;24.37;;;14.53;;
22219;SDS011;11279;48.364;10.904;2023-03-01T01:40:43;28.57;;;16.73;;
22219;SDS011;11279;48.364;10.904;2023-03-01T01:41:47;28.98;;;16.23;;
22219;SDS011;11279;48.364;10.904;2023-03-01T01:42:48;25.20;;;14.63;;
22219;SDS011;11279;48.364;10.904;2023-03-01T01:45:27;28.70;;;16.27;;
22219;SDS011;11279;48.364;10.904;2023-03-01T01:46:33;28.52;;;15.63;;
22219;SDS011;11279;48.364;10.904;2023-03-01T01:47:34;26.13;;;14.88;;
22219;SDS011;11279;48.364;10.904;2023-03-01T01:48:39;27.47;;;15.43;;
22219;SDS011;11279;48.364;10.904;2023-03-01T01:50:55;28.88;;;16.17;;
22219;SDS011;11279;48.364;10.904;2023-03-01T01:51:59;28.83;;;15.60;;
22219;SDS011;11279;48.364;10.904;2023-03-01T01:53:04;29.33;;;15.95;;
22219;SDS011;11279;48.364;10.904;2023-03-01T01:54:11;29.02;;;16.55;;
22219;SDS011;11279;48.364;10.904;2023-03-01T01:55:17;28.73;;;16.15;;
22219;SDS011;11279;48.364;10.904;2023-03-01T01:56:21;27.75;;;16.15;;
22219;SDS011;11279;48.364;10.904;2023-03-01T01:57:34;32.95;;;16.83;;
22219;SDS011;11279;48.364;10.904;2023-03-01T01:58:36;27.25;;;15.27;;
22219;SDS011;11279;48.364;10.904;2023-03-01T01:59:37;25.90;;;15.37;;
22219;SDS011;11279;48.364;10.904;2023-03-01T02:00:38;30.83;;;17.13;;
22219;SDS011;11279;48.364;10.904;2023-03-01T02:01:39;25.75;;;15.27;;
22219;SDS011;11279;48.364;10.904;2023-03-01T02:02:40;27.47;;;15.10;;
22219;SDS011;11279;48.364;10.904;2023-03-01T02:03:41;27.13;;;15.55;;
22219;SDS011;11279;48.364;10.904;2023-03-01T02:04:43;27.60;;;14.80;;
22219;SDS011;11279;48.364;10.904;2023-03-01T02:07:13;27.35;;;16.20;;
22219;SDS011;11279;48.364;10.904;2023-03-01T02:08:15;27.33;;;15.40;;
22219;SDS011;11279;48.364;10.904;2023-03-01T02:09:17;29.45;;;16.25;;
22219;SDS011;11279;48.364;10.904;2023-03-01T02:10:19;27.83;;;15.27;;
22219;SDS011;11279;48.364;10.904;2023-03-01T02:11:21;24.88;;;14.80;;
22219;SDS011;11279;48.364;10.904;2023-03-01T02:12:23;26.30;;;16.00;;
22219;SDS011;11279;48.364;10.904;2023-03-01T02:13:24;28.67;;;16.50;;
22219;SDS011;11279;48.364;10.904;2023-03-01T02:14:24;27.83;;;16.10;;
22219;SDS011;11279;48.364;10.904;2023-03-01T02:15:25;27.37;;;15.80;;
22219;SDS011;11279;48.364;10.904;2023-03-01T02:16:26;28.70;;;16.67;;
22219;SDS011;11279;48.364;10.904;2023-03-01T02:17:27;28.57;;;16.40;;
22219;SDS011;11279;48.364;10.904;2023-03-01T02:18:27;28.27;;;15.17;;
22219;SDS011;11279;48.364;10.904;2023-03-01T02:19:34;30.63;;;16.53;;
22219;SDS011;11279;48.364;10.904;2023-03-01T02:22:11;30.05;;;15.80;;
22219;SDS011;11279;48.364;10.904;2023-03-01T02:23:17;28.95;;;15.77;;
22219;SDS011;11279;48.364;10.904;2023-03-01T02:25:30;26.27;;;15.30;;
22219;SDS011;11279;48.364;10.904;2023-03-01T02:26:41;28.20;;;15.98;;
22219;SDS011;11279;48.364;10.904;2023-03-01T02:28:43;26.95;;;15.45;;
22219;SDS011;11279;48.364;10.904;2023-03-01T02:29:15;31.15;;;15.75;;
22219;SDS011;11279;48.364;10.904;2023-03-01T02:30:16;29.17;;;15.47;;
22219;SDS011;11279;48.364;10.904;2023-03-01T02:31:18;30.10;;;16.35;;
22219;SDS011;11279;48.364;10.904;2023-03-01T02:32:39;29.05;;;16.65;;
22219;SDS011;11279;48.364;10.904;2023-03-01T02:33:41;27.80;;;15.85;;
22219;SDS011;11279;48.364;10.904;2023-03-01T02:34:43;28.35;;;16.17;;
22219;SDS011;11279;48.364;10.904;2023-03-01T02:35:43;29.47;;;16.70;;
22219;SDS011;11279;48.364;10.904;2023-03-01T02:36:46;29.77;;;16.47;;
22219;SDS011;11279;48.364;10.904;2023-03-01T02:37:48;30.88;;;16.50;;
22219;SDS011;11279;48.364;10.904;2023-03-01T02:38:49;27.30;;;15.80;;
22219;SDS011;11279;48.364;10.904;2023-03-01T02:39:56;29.38;;;15.75;;
22219;SDS011;11279;48.364;10.904;2023-03-01T02:40:58;34.08;;;16.88;;
22219;SDS011;11279;48.364;10.904;2023-03-01T02:42:00;26.75;;;15.57;;
22219;SDS011;11279;48.364;10.904;2023-03-01T02:43:02;33.85;;;16.83;;
22219;SDS011;11279;48.364;10.904;2023-03-01T02:44:04;30.05;;;15.85;;
22219;SDS011;11279;48.364;10.904;2023-03-01T02:45:05;28.23;;;16.45;;
22219;SDS011;11279;48.364;10.904;2023-03-01T02:46:24;28.17;;;15.83;;
22219;SDS011;11279;48.364;10.904;2023-03-01T02:47:25;31.38;;;15.93;;
22219;SDS011;11279;48.364;10.904;2023-03-01T02:48:26;31.00;;;15.73;;
22219;SDS011;11279;48.364;10.904;2023-03-01T02:49:27;28.83;;;16.87;;
22219;SDS011;11279;48.364;10.904;2023-03-01T02:51:45;27.45;;;15.35;;
22219;SDS011;11279;48.364;10.904;2023-03-01T02:53:04;27.25;;;15.63;;
22219;SDS011;11279;48.364;10.904;2023-03-01T02:54:24;30.75;;;16.60;;
22219;SDS011;11279;48.364;10.904;2023-03-01T02:55:28;31.27;;;15.95;;
22219;SDS011;11279;48.364;10.904;2023-03-01T02:56:29;30.17;;;15.13;;
22219;SDS011;11279;48.364;10.904;2023-03-01T02:57:30;29.50;;;16.03;;
22219;SDS011;11279;48.364;10.904;2023-03-01T02:58:32;26.30;;;15.75;;
22219;SDS011;11279;48.364;10.904;2023-03-01T02:59:40;28.83;;;16.45;;
22219;SDS011;11279;48.364;10.904;2023-03-01T03:00:42;28.55;;;15.90;;
22219;SDS011;11279;48.364;10.904;2023-03-01T03:01:46;29.67;;;17.00;;
22219;SDS011;11279;48.364;10.904;2023-03-01T03:02:48;31.03;;;16.93;;
22219;SDS011;11279;48.364;10.904;2023-03-01T03:03:49;28.80;;;16.58;;
22219;SDS011;11279;48.364;10.904;2023-03-01T03:04:50;29.57;;;16.73;;
22219;SDS011;11279;48.364;10.904;2023-03-01T03:05:50;29.10;;;15.87;;
22219;SDS011;11279;48.364;10.904;2023-03-01T03:06:51;29.97;;;16.13;;
22219;SDS011;11279;48.364;10.904;2023-03-01T03:07:51;32.57;;;16.73;;
22219;SDS011;11279;48.364;10.904;2023-03-01T03:08:52;26.42;;;15.40;;
22219;SDS011;11279;48.364;10.904;2023-03-01T03:09:53;28.90;;;16.10;;
22219;SDS011;11279;48.364;10.904;2023-03-01T03:10:53;29.80;;;16.47;;
22219;SDS011;11279;48.364;10.904;2023-03-01T03:11:53;27.73;;;15.80;;
22219;SDS011;11279;48.364;10.904;2023-03-01T03:12:55;30.33;;;16.53;;
22219;SDS011;11279;48.364;10.904;2023-03-01T03:13:57;29.40;;;16.60;;
22219;SDS011;11279;48.364;10.904;2023-03-01T03:14:57;31.57;;;17.27;;
22219;SDS011;11279;48.364;10.904;2023-03-01T03:15:58;30.07;;;17.33;;
22219;SDS011;11279;48.364;10.904;2023-03-01T03:16:58;30.10;;;16.40;;
22219;SDS011;11279;48.364;10.904;2023-03-01T03:17:59;32.00;;;16.93;;
22219;SDS011;11279;48.364;10.904;2023-03-01T03:18:59;30.77;;;16.97;;
22219;SDS011;11279;48.364;10.904;2023-03-01T03:20:05;30.60;;;16.70;;
22219;SDS011;11279;48.364;10.904;2023-03-01T03:21:11;28.70;;;16.13;;
22219;SDS011;11279;48.364;10.904;2023-03-01T03:22:12;26.98;;;16.23;;
22219;SDS011;11279;48.364;10.904;2023-03-01T03:23:12;30.53;;;16.67;;
22219;SDS011;11279;48.364;10.904;2023-03-01T03:24:13;27.67;;;16.77;;
22219;SDS011;11279;48.364;10.904;2023-03-01T03:25:14;29.43;;;16.50;;
22219;SDS011;11279;48.364;10.904;2023-03-01T03:26:14;30.37;;;16.97;;
22219;SDS011;11279;48.364;10.904;2023-03-01T03:27:15;27.87;;;16.43;;
22219;SDS011;11279;48.364;10.904;2023-03-01T03:28:15;31.83;;;16.30;;
22219;SDS011;11279;48.364;10.904;2023-03-01T03:29:15;28.43;;;16.17;;
22219;SDS011;11279;48.364;10.904;2023-03-01T03:30:17;33.53;;;16.87;;
22219;SDS011;11279;48.364;10.904;2023-03-01T03:31:20;28.05;;;15.55;;
22219;SDS011;11279;48.364;10.904;2023-03-01T03:32:20;29.43;;;16.03;;
22219;SDS011;11279;48.364;10.904;2023-03-01T03:33:20;28.43;;;15.97;;
22219;SDS011;11279;48.364;10.904;2023-03-01T03:34:21;31.87;;;15.73;;
22219;SDS011;11279;48.364;10.904;2023-03-01T03:35:26;28.57;;;16.80;;
22219;SDS011;11279;48.364;10.904;2023-03-01T03:36:30;29.35;;;15.55;;
22219;SDS011;11279;48.364;10.904;2023-03-01T03:37:31;27.90;;;15.83;;
22219;SDS011;11279;48.364;10.904;2023-03-01T03:38:50;27.10;;;15.27;;
22219;SDS011;11279;48.364;10.904;2023-03-01T03:39:50;26.23;;;15.73;;
22219;SDS011;11279;48.364;10.904;2023-03-01T03:41:02;29.45;;;16.15;;
22219;SDS011;11279;48.364;10.904;2023-03-01T03:42:03;27.15;;;15.85;;
22219;SDS011;11279;48.364;10.904;2023-03-01T03:43:04;27.30;;;14.67;;
22219;SDS011;11279;48.364;10.904;2023-03-01T03:44:06;31.02;;;17.27;;
22219;SDS011;11279;48.364;10.904;2023-03-01T03:45:06;28.97;;;16.57;;
22219;SDS011;11279;48.364;10.904;2023-03-01T03:46:08;28.23;;;16.17;;
22219;SDS011;11279;48.364;10.904;2023-03-01T03:47:09;30.20;;;16.75;;
22219;SDS011;11279;48.364;10.904;2023-03-01T03:48:10;29.67;;;16.97;;
22219;SDS011;11279;48.364;10.904;2023-03-01T03:49:10;28.67;;;16.27;;
22219;SDS011;11279;48.364;10.904;2023-03-01T03:50:12;28.97;;;15.53;;
22219;SDS011;11279;48.364;10.904;2023-03-01T03:51:14;32.15;;;16.60;;
22219;SDS011;11279;48.364;10.904;2023-03-01T03:52:15;27.23;;;16.08;;
22219;SDS011;11279;48.364;10.904;2023-03-01T03:53:16;29.83;;;16.80;;
22219;SDS011;11279;48.364;10.904;2023-03-01T03:54:17;28.45;;;16.73;;
22219;SDS011;11279;48.364;10.904;2023-03-01T03:55:17;31.50;;;16.33;;
22219;SDS011;11279;48.364;10.904;2023-03-01T03:56:19;32.35;;;16.50;;
22219;SDS011;11279;48.364;10.904;2023-03-01T03:57:19;31.37;;;16.67;;
22219;SDS011;11279;48.364;10.904;2023-03-01T03:58:21;27.95;;;16.20;;
22219;SDS011;11279;48.364;10.904;2023-03-01T03:59:23;30.00;;;16.35;;
22219;SDS011;11279;48.364;10.904;2023-03-01T04:00:23;29.73;;;16.57;;
22219;SDS011;11279;48.364;10.904;2023-03-01T04:01:24;29.47;;;16.70;;
22219;SDS011;11279;48.364;10.904;2023-03-01T04:02:24;26.43;;;16.30;;
22219;SDS011;11279;48.364;10.904;2023-03-01T04:03:25;28.00;;;15.80;;
22219;SDS011;11279;48.364;10.904;2023-03-01T04:04:26;30.95;;;17.13;;
22219;SDS011;11279;48.364;10.904;2023-03-01T04:05:27;28.33;;;16.00;;
22219;SDS011;11279;48.364;10.904;2023-03-01T04:06:28;30.02;;;16.50;;
22219;SDS011;11279;48.364;10.904;2023-03-01T04:07:28;29.80;;;15.90;;
22219;SDS011;11279;48.364;10.904;2023-03-01T04:08:29;29.00;;;16.90;;
22219;SDS011;11279;48.364;10.904;2023-03-01T04:09:29;28.87;;;15.87;;
22219;SDS011;11279;48.364;10.904;2023-03-01T04:10:31;32.27;;;17.83;;
22219;SDS011;11279;48.364;10.904;2023-03-01T04:11:33;31.90;;;16.35;;
22219;SDS011;11279;48.364;10.904;2023-03-01T04:12:34;29.95;;;15.80;;
22219;SDS011;11279;48.364;10.904;2023-03-01T04:13:35;31.73;;;16.63;;
22219;SDS011;11279;48.364;10.904;2023-03-01T04:14:36;31.38;;;16.67;;
22219;SDS011;11279;48.364;10.904;2023-03-01T04:15:37;30.20;;;16.70;;
22219;SDS011;11279;48.364;10.904;2023-03-01T04:16:37;27.47;;;16.33;;
22219;SDS011;11279;48.364;10.904;2023-03-01T04:17:39;29.43;;;16.20;;
22219;SDS011;11279;48.364;10.904;2023-03-01T04:18:40;30.17;;;16.60;;
22219;SDS011;11279;48.364;10.904;2023-03-01T04:19:40;27.07;;;16.03;;
22219;SDS011;11279;48.364;10.904;2023-03-01T04:20:44;28.15;;;16.48;;
22219;SDS011;11279;48.364;10.904;2023-03-01T04:21:45;29.52;;;16.40;;
22219;SDS011;11279;48.364;10.904;2023-03-01T04:22:45;31.97;;;16.70;;
22219;SDS011;11279;48.364;10.904;2023-03-01T04:23:47;29.15;;;15.32;;
22219;SDS011;11279;48.364;10.904;2023-03-01T04:24:47;26.37;;;14.37;;
22219;SDS011;11279;48.364;10.904;2023-03-01T04:25:55;29.35;;;16.30;;
22219;SDS011;11279;48.364;10.904;2023-03-01T04:26:57;29.30;;;15.85;;
22219;SDS011;11279;48.364;10.904;2023-03-01T04:27:57;27.37;;;16.00;;
22219;SDS011;11279;48.364;10.904;2023-03-01T04:28:57;29.27;;;16.70;;
22219;SDS011;11279;48.364;10.904;2023-03-01T04:29:58;29.37;;;17.20;;
22219;SDS011;11279;48.364;10.904;2023-03-01T04:31:01;27.63;;;16.13;;
22219;SDS011;11279;48.364;10.904;2023-03-01T04:32:12;30.70;;;16.38;;
22219;SDS011;11279;48.364;10.904;2023-03-01T04:33:16;29.80;;;16.58;;
22219;SDS011;11279;48.364;10.904;2023-03-01T04:34:16;30.03;;;16.73;;
22219;SDS011;11279;48.364;10.904;2023-03-01T04:35:17;29.17;;;15.90;;
22219;SDS011;11279;48.364;10.904;2023-03-01T04:36:18;27.33;;;15.37;;
22219;SDS011;11279;48.364;10.904;2023-03-01T04:37:19;29.88;;;16.80;;
22219;SDS011;11279;48.364;10.904;2023-03-01T04:38:20;31.83;;;17.67;;
22219;SDS011;11279;48.364;10.904;2023-03-01T04:39:21;30.45;;;16.63;;
22219;SDS011;11279;48.364;10.904;2023-03-01T04:40:21;28.83;;;16.37;;
22219;SDS011;11279;48.364;10.904;2023-03-01T04:41:22;30.83;;;16.77;;
22219;SDS011;11279;48.364;10.904;2023-03-01T04:42:24;29.92;;;16.52;;
22219;SDS011;11279;48.364;10.904;2023-03-01T04:43:24;34.33;;;17.80;;
22219;SDS011;11279;48.364;10.904;2023-03-01T04:44:25;30.03;;;17.80;;
22219;SDS011;11279;48.364;10.904;2023-03-01T04:45:25;33.60;;;16.67;;
22219;SDS011;11279;48.364;10.904;2023-03-01T04:46:26;29.80;;;17.00;;
22219;SDS011;11279;48.364;10.904;2023-03-01T04:47:26;29.90;;;15.80;;
22219;SDS011;11279;48.364;10.904;2023-03-01T04:48:26;32.03;;;16.23;;
22219;SDS011;11279;48.364;10.904;2023-03-01T04:49:27;30.07;;;16.40;;
22219;SDS011;11279;48.364;10.904;2023-03-01T04:50:27;31.00;;;16.83;;
22219;SDS011;11279;48.364;10.904;2023-03-01T04:51:28;27.73;;;16.53;;
22219;SDS011;11279;48.364;10.904;2023-03-01T04:52:29;30.00;;;16.67;;
22219;SDS011;11279;48.364;10.904;2023-03-01T04:53:29;29.23;;;16.43;;
22219;SDS011;11279;48.364;10.904;2023-03-01T04:54:30;25.23;;;15.30;;
22219;SDS011;11279;48.364;10.904;2023-03-01T04:55:33;29.75;;;16.80;;
22219;SDS011;11279;48.364;10.904;2023-03-01T04:56:34;32.58;;;16.45;;
22219;SDS011;11279;48.364;10.904;2023-03-01T04:57:34;29.33;;;17.20;;
22219;SDS011;11279;48.364;10.904;2023-03-01T04:58:34;30.33;;;17.67;;
22219;SDS011;11279;48.364;10.904;2023-03-01T04:59:35;29.73;;;16.93;;
22219;SDS011;11279;48.364;10.904;2023-03-01T05:00:36;30.40;;;17.60;;
22219;SDS011;11279;48.364;10.904;2023-03-01T05:01:36;28.83;;;17.23;;
22219;SDS011;11279;48.364;10.904;2023-03-01T05:02:37;30.17;;;16.30;;
22219;SDS011;11279;48.364;10.904;2023-03-01T05:03:37;28.73;;;16.37;;
22219;SDS011;11279;48.364;10.904;2023-03-01T05:04:38;29.93;;;17.27;;
22219;SDS011;11279;48.364;10.904;2023-03-01T05:05:38;31.27;;;17.50;;
22219;SDS011;11279;48.364;10.904;2023-03-01T05:06:39;29.60;;;16.45;;
22219;SDS011;11279;48.364;10.904;2023-03-01T05:07:40;29.27;;;16.20;;
22219;SDS011;11279;48.364;10.904;2023-03-01T05:08:41;28.70;;;16.40;;
22219;SDS011;11279;48.364;10.904;2023-03-01T05:09:41;27.13;;;16.50;;
22219;SDS011;11279;48.364;10.904;2023-03-01T05:10:42;30.80;;;16.87;;
22219;SDS011;11279;48.364;10.904;2023-03-01T05:11:44;31.60;;;17.58;;
22219;SDS011;11279;48.364;10.904;2023-03-01T05:12:44;31.77;;;17.47;;
22219;SDS011;11279;48.364;10.904;2023-03-01T05:13:45;28.00;;;16.57;;
22219;SDS011;11279;48.364;10.904;2023-03-01T05:14:45;28.80;;;16.77;;
22219;SDS011;11279;48.364;10.904;2023-03-01T05:15:46;31.33;;;16.83;;
22219;SDS011;11279;48.364;10.904;2023-03-01T05:17:00;30.17;;;16.35;;
22219;SDS011;11279;48.364;10.904;2023-03-01T05:18:03;30.38;;;17.10;;
22219;SDS011;11279;48.364;10.904;2023-03-01T05:19:07;34.83;;;17.70;;
22219;SDS011;11279;48.364;10.904;2023-03-01T05:20:15;32.78;;;17.88;;
22219;SDS011;11279;48.364;10.904;2023-03-01T05:21:16;30.83;;;16.90;;
22219;SDS011;11279;48.364;10.904;2023-03-01T05:22:16;37.37;;;18.20;;
22219;SDS011;11279;48.364;10.904;2023-03-01T05:23:17;33.13;;;17.57;;
22219;SDS011;11279;48.364;10.904;2023-03-01T05:24:18;30.27;;;16.80;;
22219;SDS011;11279;48.364;10.904;2023-03-01T05:25:18;30.13;;;17.60;;
22219;SDS011;11279;48.364;10.904;2023-03-01T05:26:19;32.50;;;18.23;;
22219;SDS011;11279;48.364;10.904;2023-03-01T05:27:21;29.98;;;16.85;;
22219;SDS011;11279;48.364;10.904;2023-03-01T05:28:22;32.67;;;17.70;;
22219;SDS011;11279;48.364;10.904;2023-03-01T05:29:23;33.47;;;17.40;;
22219;SDS011;11279;48.364;10.904;2023-03-01T05:30:25;30.02;;;17.15;;
22219;SDS011;11279;48.364;10.904;2023-03-01T05:31:25;34.17;;;17.63;;
22219;SDS011;11279;48.364;10.904;2023-03-01T05:32:25;29.33;;;17.57;;
22219;SDS011;11279;48.364;10.904;2023-03-01T05:33:26;31.30;;;16.60;;
22219;SDS011;11279;48.364;10.904;2023-03-01T05:34:31;29.83;;;17.13;;
22219;SDS011;11279;48.364;10.904;2023-03-01T05:35:33;32.13;;;17.73;;
22219;SDS011;11279;48.364;10.904;2023-03-01T05:36:34;32.80;;;17.53;;
22219;SDS011;11279;48.364;10.904;2023-03-01T05:37:34;32.00;;;17.43;;
22219;SDS011;11279;48.364;10.904;2023-03-01T05:38:35;30.65;;;18.10;;
22219;SDS011;11279;48.364;10.904;2023-03-01T05:39:36;32.95;;;17.60;;
22219;SDS011;11279;48.364;10.904;2023-03-01T05:40:37;33.60;;;18.37;;
22219;SDS011;11279;48.364;10.904;2023-03-01T05:41:38;31.13;;;16.50;;
22219;SDS011;11279;48.364;10.904;2023-03-01T05:42:38;31.33;;;17.17;;
22219;SDS011;11279;48.364;10.904;2023-03-01T05:43:38;33.30;;;18.13;;
22219;SDS011;11279;48.364;10.904;2023-03-01T05:44:41;30.15;;;17.83;;
22219;SDS011;11279;48.364;10.904;2023-03-01T05:45:42;34.20;;;17.93;;
22219;SDS011;11279;48.364;10.904;2023-03-01T05:46:43;35.53;;;18.80;;
22219;SDS011;11279;48.364;10.904;2023-03-01T05:47:45;32.88;;;17.95;;
22219;SDS011;11279;48.364;10.904;2023-03-01T05:48:46;32.70;;;17.55;;
22219;SDS011;11279;48.364;10.904;2023-03-01T05:49:48;30.88;;;18.17;;
22219;SDS011;11279;48.364;10.904;2023-03-01T05:50:50;32.08;;;17.73;;
22219;SDS011;11279;48.364;10.904;2023-03-01T05:51:51;35.37;;;18.63;;
22219;SDS011;11279;48.364;10.904;2023-03-01T05:54:04;32.40;;;17.58;;
22219;SDS011;11279;48.364;10.904;2023-03-01T05:55:06;31.20;;;17.70;;
22219;SDS011;11279;48.364;10.904;2023-03-01T05:56:07;32.80;;;17.30;;
22219;SDS011;11279;48.364;10.904;2023-03-01T05:57:07;33.33;;;18.03;;
22219;SDS011;11279;48.364;10.904;2023-03-01T05:58:09;31.43;;;17.43;;
22219;SDS011;11279;48.364;10.904;2023-03-01T05:59:11;32.63;;;18.10;;
22219;SDS011;11279;48.364;10.904;2023-03-01T06:00:13;32.70;;;17.50;;
22219;SDS011;11279;48.364;10.904;2023-03-01T06:01:15;34.47;;;18.08;;
22219;SDS011;11279;48.364;10.904;2023-03-01T06:02:16;33.50;;;18.20;;
22219;SDS011;11279;48.364;10.904;2023-03-01T06:03:16;31.83;;;18.37;;
22219;SDS011;11279;48.364;10.904;2023-03-01T06:04:17;32.50;;;18.45;;
22219;SDS011;11279;48.364;10.904;2023-03-01T06:05:18;32.87;;;18.27;;
22219;SDS011;11279;48.364;10.904;2023-03-01T06:06:18;36.63;;;18.57;;
22219;SDS011;11279;48.364;10.904;2023-03-01T06:07:19;30.93;;;17.50;;